sensor_id;sensor_type;location;lat;lon;timestamp;P1;durP1;ratioP1;P2;durP2;ratioP2
36653;SDS011;22650;49.350;20.898;2023-11-22T00:00:57;1999.90;;;999.90;;
36653;SDS011;22650;49.350;20.898;2023-11-22T00:03:31;1999.90;;;999.90;;
36653;SDS011;22650;49.350;20.898;2023-11-22T00:06:05;1999.90;;;999.90;;
36653;SDS011;22650;49.350;20.898;2023-11-22T00:08:41;1999.90;;;999.90;;
36653;SDS011;22650;49.350;20.898;2023-11-22T00:11:14;1999.90;;;999.90;;
36653;SDS011;22650;49.350;20.898;2023-11-22T00:13:48;1999.90;;;999.90;;
36653;SDS011;22650;49.350;20.898;2023-11-22T00:16:29;1999.90;;;999.90;;
36653;SDS011;22650;49.350;20.898;2023-11-22T00:19:03;1999.90;;;999.90;;
36653;SDS011;22650;49.350;20.898;2023-11-22T00:21:36;1999.90;;;999.90;;
36653;SDS011;22650;49.350;20.898;2023-11-22T00:24:12;1999.90;;;999.90;;
36653;SDS011;22650;49.350;20.898;2023-11-22T00:26:45;1982.25;;;999.90;;
36653;SDS011;22650;49.350;20.898;2023-11-22T00:29:19;1999.90;;;988.17;;
36653;SDS011;22650;49.350;20.898;2023-11-22T00:31:52;1945.28;;;998.47;;
36653;SDS011;22650;49.350;20.898;2023-11-22T00:34:27;1998.63;;;999.90;;
36653;SDS011;22650;49.350;20.898;2023-11-22T00:37:00;1993.10;;;999.90;;
36653;SDS011;22650;49.350;20.898;2023-11-22T00:39:35;1999.90;;;999.90;;
36653;SDS011;22650;49.350;20.898;2023-11-22T00:42:09;1999.90;;;999.90;;
36653;SDS011;22650;49.350;20.898;2023-11-22T00:44:43;1777.57;;;999.90;;
36653;SDS011;22650;49.350;20.898;2023-11-22T00:47:16;1798.00;;;995.40;;
36653;SDS011;22650;49.350;20.898;2023-11-22T00:49:50;1654.88;;;999.90;;
36653;SDS011;22650;49.350;20.898;2023-11-22T00:52:24;1515.28;;;999.90;;
36653;SDS011;22650;49.350;20.898;2023-11-22T00:54:59;1573.95;;;999.90;;
36653;SDS011;22650;49.350;20.898;2023-11-22T00:57:32;1502.22;;;999.90;;
36653;SDS011;22650;49.350;20.898;2023-11-22T01:00:06;1486.60;;;999.90;;
36653;SDS011;22650;49.350;20.898;2023-11-22T01:02:44;1341.82;;;999.90;;
36653;SDS011;22650;49.350;20.898;2023-11-22T01:05:18;1443.10;;;999.90;;
36653;SDS011;22650;49.350;20.898;2023-11-22T01:07:54;1432.55;;;999.90;;
36653;SDS011;22650;49.350;20.898;2023-11-22T01:10:29;1388.32;;;992.55;;
36653;SDS011;22650;49.350;20.898;2023-11-22T01:13:03;1258.95;;;997.92;;
36653;SDS011;22650;49.350;20.898;2023-11-22T01:15:37;1356.30;;;990.83;;
36653;SDS011;22650;49.350;20.898;2023-11-22T01:18:10;1342.13;;;999.83;;
36653;SDS011;22650;49.350;20.898;2023-11-22T01:20:44;1240.15;;;997.35;;
36653;SDS011;22650;49.350;20.898;2023-11-22T01:23:18;1294.22;;;977.30;;
36653;SDS011;22650;49.350;20.898;2023-11-22T01:25:53;1227.82;;;989.67;;
36653;SDS011;22650;49.350;20.898;2023-11-22T01:28:27;1227.70;;;995.50;;
36653;SDS011;22650;49.350;20.898;2023-11-22T01:31:01;1246.57;;;979.17;;
36653;SDS011;22650;49.350;20.898;2023-11-22T01:33:35;1270.68;;;938.88;;
36653;SDS011;22650;49.350;20.898;2023-11-22T01:36:09;1217.88;;;984.83;;
36653;SDS011;22650;49.350;20.898;2023-11-22T01:38:42;1276.43;;;999.90;;
36653;SDS011;22650;49.350;20.898;2023-11-22T01:41:19;1249.68;;;969.53;;
36653;SDS011;22650;49.350;20.898;2023-11-22T01:43:53;1134.30;;;972.83;;
36653;SDS011;22650;49.350;20.898;2023-11-22T01:46:27;1219.53;;;979.67;;
36653;SDS011;22650;49.350;20.898;2023-11-22T01:49:01;1250.57;;;959.17;;
36653;SDS011;22650;49.350;20.898;2023-11-22T01:51:35;1187.97;;;991.97;;
36653;SDS011;22650;49.350;20.898;2023-11-22T01:54:10;1172.25;;;981.65;;
36653;SDS011;22650;49.350;20.898;2023-11-22T01:56:46;1073.90;;;957.90;;
36653;SDS011;22650;49.350;20.898;2023-11-22T01:59:19;1105.57;;;983.15;;
36653;SDS011;22650;49.350;20.898;2023-11-22T02:01:54;1080.60;;;956.00;;
36653;SDS011;22650;49.350;20.898;2023-11-22T02:04:28;1040.35;;;933.85;;
36653;SDS011;22650;49.350;20.898;2023-11-22T02:07:02;1060.00;;;945.42;;
36653;SDS011;22650;49.350;20.898;2023-11-22T02:09:36;1030.95;;;926.92;;
36653;SDS011;22650;49.350;20.898;2023-11-22T02:12:11;1027.57;;;922.97;;
36653;SDS011;22650;49.350;20.898;2023-11-22T02:14:46;994.80;;;898.78;;
36653;SDS011;22650;49.350;20.898;2023-11-22T02:17:19;977.17;;;880.85;;
36653;SDS011;22650;49.350;20.898;2023-11-22T02:19:54;1000.78;;;902.70;;
36653;SDS011;22650;49.350;20.898;2023-11-22T02:22:29;1026.63;;;919.95;;
36653;SDS011;22650;49.350;20.898;2023-11-22T02:25:04;972.72;;;881.33;;
36653;SDS011;22650;49.350;20.898;2023-11-22T02:27:38;954.38;;;864.17;;
36653;SDS011;22650;49.350;20.898;2023-11-22T02:30:12;1003.70;;;908.67;;
36653;SDS011;22650;49.350;20.898;2023-11-22T02:32:47;971.33;;;881.95;;
36653;SDS011;22650;49.350;20.898;2023-11-22T02:35:21;977.53;;;884.65;;
36653;SDS011;22650;49.350;20.898;2023-11-22T02:37:54;944.15;;;853.28;;
36653;SDS011;22650;49.350;20.898;2023-11-22T02:40:29;970.17;;;875.50;;
36653;SDS011;22650;49.350;20.898;2023-11-22T02:43:03;967.92;;;874.80;;
36653;SDS011;22650;49.350;20.898;2023-11-22T02:45:41;999.05;;;903.65;;
36653;SDS011;22650;49.350;20.898;2023-11-22T02:48:17;956.15;;;871.05;;
36653;SDS011;22650;49.350;20.898;2023-11-22T02:50:50;965.38;;;875.92;;
36653;SDS011;22650;49.350;20.898;2023-11-22T02:53:25;973.70;;;887.05;;
36653;SDS011;22650;49.350;20.898;2023-11-22T02:56:03;998.47;;;897.75;;
36653;SDS011;22650;49.350;20.898;2023-11-22T02:58:38;964.13;;;880.20;;
36653;SDS011;22650;49.350;20.898;2023-11-22T03:01:11;918.83;;;836.25;;
36653;SDS011;22650;49.350;20.898;2023-11-22T03:03:45;925.40;;;844.03;;
36653;SDS011;22650;49.350;20.898;2023-11-22T03:06:19;934.50;;;852.88;;
36653;SDS011;22650;49.350;20.898;2023-11-22T03:08:52;955.55;;;857.25;;
36653;SDS011;22650;49.350;20.898;2023-11-22T03:11:27;911.58;;;831.33;;
36653;SDS011;22650;49.350;20.898;2023-11-22T03:14:01;905.85;;;825.58;;
36653;SDS011;22650;49.350;20.898;2023-11-22T03:16:38;932.78;;;847.83;;
36653;SDS011;22650;49.350;20.898;2023-11-22T03:19:12;927.90;;;844.00;;
36653;SDS011;22650;49.350;20.898;2023-11-22T03:21:46;893.38;;;814.72;;
36653;SDS011;22650;49.350;20.898;2023-11-22T03:24:19;940.30;;;855.60;;
36653;SDS011;22650;49.350;20.898;2023-11-22T03:26:55;918.63;;;836.65;;
36653;SDS011;22650;49.350;20.898;2023-11-22T03:29:30;947.47;;;861.53;;
36653;SDS011;22650;49.350;20.898;2023-11-22T03:32:05;913.35;;;831.25;;
36653;SDS011;22650;49.350;20.898;2023-11-22T03:34:40;909.70;;;824.85;;
36653;SDS011;22650;49.350;20.898;2023-11-22T03:37:13;924.08;;;843.88;;
36653;SDS011;22650;49.350;20.898;2023-11-22T03:39:48;931.17;;;850.53;;
36653;SDS011;22650;49.350;20.898;2023-11-22T03:42:23;911.42;;;833.22;;
36653;SDS011;22650;49.350;20.898;2023-11-22T03:44:58;926.38;;;847.95;;
36653;SDS011;22650;49.350;20.898;2023-11-22T03:47:32;934.25;;;855.13;;
36653;SDS011;22650;49.350;20.898;2023-11-22T03:50:10;921.80;;;842.65;;
36653;SDS011;22650;49.350;20.898;2023-11-22T03:52:47;902.28;;;826.92;;
36653;SDS011;22650;49.350;20.898;2023-11-22T03:55:20;928.67;;;847.92;;
36653;SDS011;22650;49.350;20.898;2023-11-22T03:57:56;890.88;;;816.65;;
36653;SDS011;22650;49.350;20.898;2023-11-22T04:00:29;930.13;;;836.20;;
36653;SDS011;22650;49.350;20.898;2023-11-22T04:03:04;891.05;;;816.75;;
36653;SDS011;22650;49.350;20.898;2023-11-22T04:05:37;878.33;;;803.83;;
36653;SDS011;22650;49.350;20.898;2023-11-22T04:08:11;915.28;;;839.47;;
36653;SDS011;22650;49.350;20.898;2023-11-22T04:10:45;905.08;;;827.30;;
36653;SDS011;22650;49.350;20.898;2023-11-22T04:13:20;891.65;;;813.97;;
36653;SDS011;22650;49.350;20.898;2023-11-22T04:15:56;920.28;;;843.60;;
36653;SDS011;22650;49.350;20.898;2023-11-22T04:18:30;941.38;;;861.13;;
36653;SDS011;22650;49.350;20.898;2023-11-22T04:21:04;969.92;;;887.65;;
36653;SDS011;22650;49.350;20.898;2023-11-22T04:23:38;977.78;;;893.08;;
36653;SDS011;22650;49.350;20.898;2023-11-22T04:26:12;914.40;;;838.30;;
36653;SDS011;22650;49.350;20.898;2023-11-22T04:28:47;852.17;;;783.00;;
36653;SDS011;22650;49.350;20.898;2023-11-22T04:31:21;829.95;;;757.22;;
36653;SDS011;22650;49.350;20.898;2023-11-22T04:33:54;923.40;;;846.40;;
36653;SDS011;22650;49.350;20.898;2023-11-22T04:36:29;893.55;;;820.13;;
36653;SDS011;22650;49.350;20.898;2023-11-22T04:39:03;924.97;;;847.85;;
36653;SDS011;22650;49.350;20.898;2023-11-22T04:41:38;878.70;;;806.97;;
36653;SDS011;22650;49.350;20.898;2023-11-22T04:44:13;901.13;;;829.42;;
36653;SDS011;22650;49.350;20.898;2023-11-22T04:46:47;875.08;;;800.63;;
36653;SDS011;22650;49.350;20.898;2023-11-22T04:49:21;937.03;;;859.47;;
36653;SDS011;22650;49.350;20.898;2023-11-22T04:51:54;934.17;;;856.90;;
36653;SDS011;22650;49.350;20.898;2023-11-22T04:54:28;949.70;;;872.33;;
36653;SDS011;22650;49.350;20.898;2023-11-22T04:57:02;959.67;;;881.30;;
36653;SDS011;22650;49.350;20.898;2023-11-22T04:59:37;937.85;;;862.50;;
36653;SDS011;22650;49.350;20.898;2023-11-22T05:02:12;923.97;;;846.90;;
36653;SDS011;22650;49.350;20.898;2023-11-22T05:04:46;881.45;;;810.50;;
36653;SDS011;22650;49.350;20.898;2023-11-22T05:07:20;906.88;;;834.38;;
36653;SDS011;22650;49.350;20.898;2023-11-22T05:09:54;903.30;;;831.67;;
36653;SDS011;22650;49.350;20.898;2023-11-22T05:12:27;939.85;;;863.17;;
36653;SDS011;22650;49.350;20.898;2023-11-22T05:15:03;877.42;;;808.72;;
36653;SDS011;22650;49.350;20.898;2023-11-22T05:17:37;944.97;;;866.92;;
36653;SDS011;22650;49.350;20.898;2023-11-22T05:20:11;911.17;;;836.30;;
36653;SDS011;22650;49.350;20.898;2023-11-22T05:22:45;928.83;;;853.55;;
36653;SDS011;22650;49.350;20.898;2023-11-22T05:25:18;905.95;;;833.05;;
36653;SDS011;22650;49.350;20.898;2023-11-22T05:27:52;959.65;;;870.17;;
36653;SDS011;22650;49.350;20.898;2023-11-22T05:30:27;933.45;;;854.65;;
36653;SDS011;22650;49.350;20.898;2023-11-22T05:33:01;922.22;;;842.85;;
36653;SDS011;22650;49.350;20.898;2023-11-22T05:35:35;933.88;;;859.50;;
36653;SDS011;22650;49.350;20.898;2023-11-22T05:38:09;925.30;;;853.30;;
36653;SDS011;22650;49.350;20.898;2023-11-22T05:40:42;925.38;;;850.20;;
36653;SDS011;22650;49.350;20.898;2023-11-22T05:43:17;926.60;;;851.03;;
36653;SDS011;22650;49.350;20.898;2023-11-22T05:45:58;885.80;;;815.90;;
36653;SDS011;22650;49.350;20.898;2023-11-22T05:48:32;831.33;;;767.35;;
36653;SDS011;22650;49.350;20.898;2023-11-22T05:51:06;948.83;;;871.00;;
36653;SDS011;22650;49.350;20.898;2023-11-22T05:53:40;881.25;;;813.47;;
36653;SDS011;22650;49.350;20.898;2023-11-22T05:56:14;920.60;;;848.38;;
36653;SDS011;22650;49.350;20.898;2023-11-22T05:58:48;934.60;;;860.72;;
36653;SDS011;22650;49.350;20.898;2023-11-22T06:01:23;922.17;;;848.08;;
36653;SDS011;22650;49.350;20.898;2023-11-22T06:03:58;919.03;;;845.58;;
36653;SDS011;22650;49.350;20.898;2023-11-22T06:06:32;917.35;;;844.40;;
36653;SDS011;22650;49.350;20.898;2023-11-22T06:09:05;908.15;;;836.30;;
36653;SDS011;22650;49.350;20.898;2023-11-22T06:11:39;896.25;;;826.53;;
36653;SDS011;22650;49.350;20.898;2023-11-22T06:14:13;891.97;;;821.30;;
36653;SDS011;22650;49.350;20.898;2023-11-22T06:16:48;840.97;;;775.90;;
36653;SDS011;22650;49.350;20.898;2023-11-22T06:19:22;835.80;;;771.13;;
36653;SDS011;22650;49.350;20.898;2023-11-22T06:21:56;875.90;;;807.42;;
36653;SDS011;22650;49.350;20.898;2023-11-22T06:24:30;942.97;;;866.88;;
36653;SDS011;22650;49.350;20.898;2023-11-22T06:27:05;919.05;;;845.97;;
36653;SDS011;22650;49.350;20.898;2023-11-22T06:29:38;856.20;;;789.35;;
36653;SDS011;22650;49.350;20.898;2023-11-22T06:32:13;871.92;;;804.55;;
36653;SDS011;22650;49.350;20.898;2023-11-22T06:34:47;837.05;;;773.67;;
36653;SDS011;22650;49.350;20.898;2023-11-22T06:37:21;914.95;;;836.05;;
36653;SDS011;22650;49.350;20.898;2023-11-22T06:39:55;876.45;;;784.67;;
36653;SDS011;22650;49.350;20.898;2023-11-22T06:42:29;767.95;;;709.50;;
36653;SDS011;22650;49.350;20.898;2023-11-22T06:45:03;835.90;;;762.00;;
36653;SDS011;22650;49.350;20.898;2023-11-22T06:47:43;801.05;;;739.50;;
36653;SDS011;22650;49.350;20.898;2023-11-22T06:50:17;806.20;;;745.17;;
36653;SDS011;22650;49.350;20.898;2023-11-22T06:52:51;765.60;;;704.45;;
36653;SDS011;22650;49.350;20.898;2023-11-22T06:55:25;848.55;;;784.55;;
36653;SDS011;22650;49.350;20.898;2023-11-22T06:57:59;842.13;;;777.72;;
36653;SDS011;22650;49.350;20.898;2023-11-22T07:00:33;809.50;;;747.13;;
36653;SDS011;22650;49.350;20.898;2023-11-22T07:03:08;785.60;;;723.88;;
36653;SDS011;22650;49.350;20.898;2023-11-22T07:05:43;804.20;;;743.55;;
36653;SDS011;22650;49.350;20.898;2023-11-22T07:08:16;836.25;;;771.65;;
36653;SDS011;22650;49.350;20.898;2023-11-22T07:10:50;927.90;;;831.85;;
36653;SDS011;22650;49.350;20.898;2023-11-22T07:13:24;826.50;;;762.47;;
36653;SDS011;22650;49.350;20.898;2023-11-22T07:15:58;799.08;;;735.80;;
36653;SDS011;22650;49.350;20.898;2023-11-22T07:18:33;818.92;;;754.67;;
36653;SDS011;22650;49.350;20.898;2023-11-22T07:21:07;820.03;;;752.58;;
36653;SDS011;22650;49.350;20.898;2023-11-22T07:23:40;837.55;;;769.17;;
36653;SDS011;22650;49.350;20.898;2023-11-22T07:26:14;837.80;;;769.33;;
36653;SDS011;22650;49.350;20.898;2023-11-22T07:28:48;837.33;;;767.78;;
36653;SDS011;22650;49.350;20.898;2023-11-22T07:31:22;829.55;;;761.45;;
36653;SDS011;22650;49.350;20.898;2023-11-22T07:33:58;844.92;;;776.67;;
36653;SDS011;22650;49.350;20.898;2023-11-22T07:36:33;875.78;;;801.78;;
36653;SDS011;22650;49.350;20.898;2023-11-22T07:39:09;869.50;;;789.72;;
36653;SDS011;22650;49.350;20.898;2023-11-22T07:41:44;852.35;;;780.75;;
36653;SDS011;22650;49.350;20.898;2023-11-22T07:44:21;826.13;;;757.05;;
36653;SDS011;22650;49.350;20.898;2023-11-22T07:46:55;814.90;;;747.63;;
36653;SDS011;22650;49.350;20.898;2023-11-22T07:49:32;846.38;;;775.25;;
36653;SDS011;22650;49.350;20.898;2023-11-22T07:52:08;847.15;;;775.42;;
36653;SDS011;22650;49.350;20.898;2023-11-22T07:54:46;837.58;;;767.78;;
36653;SDS011;22650;49.350;20.898;2023-11-22T07:57:19;849.83;;;778.50;;
36653;SDS011;22650;49.350;20.898;2023-11-22T07:59:54;827.80;;;759.47;;
36653;SDS011;22650;49.350;20.898;2023-11-22T08:02:28;802.90;;;735.17;;
36653;SDS011;22650;49.350;20.898;2023-11-22T08:05:06;825.05;;;758.22;;
36653;SDS011;22650;49.350;20.898;2023-11-22T08:07:41;836.63;;;768.03;;
36653;SDS011;22650;49.350;20.898;2023-11-22T08:10:21;813.40;;;747.38;;
36653;SDS011;22650;49.350;20.898;2023-11-22T08:12:57;835.60;;;764.70;;
36653;SDS011;22650;49.350;20.898;2023-11-22T08:15:31;854.35;;;781.17;;
36653;SDS011;22650;49.350;20.898;2023-11-22T08:18:05;833.22;;;764.10;;
36653;SDS011;22650;49.350;20.898;2023-11-22T08:20:40;883.75;;;808.03;;
36653;SDS011;22650;49.350;20.898;2023-11-22T08:23:14;843.97;;;771.97;;
36653;SDS011;22650;49.350;20.898;2023-11-22T08:25:48;872.30;;;799.85;;
36653;SDS011;22650;49.350;20.898;2023-11-22T08:28:23;892.30;;;816.00;;
36653;SDS011;22650;49.350;20.898;2023-11-22T08:30:57;891.95;;;813.92;;
36653;SDS011;22650;49.350;20.898;2023-11-22T08:33:32;888.80;;;814.42;;
36653;SDS011;22650;49.350;20.898;2023-11-22T08:36:08;883.13;;;808.65;;
36653;SDS011;22650;49.350;20.898;2023-11-22T08:38:42;853.55;;;782.38;;
36653;SDS011;22650;49.350;20.898;2023-11-22T08:41:16;857.55;;;784.17;;
36653;SDS011;22650;49.350;20.898;2023-11-22T08:43:50;858.22;;;786.00;;
36653;SDS011;22650;49.350;20.898;2023-11-22T08:46:24;853.35;;;781.03;;
36653;SDS011;22650;49.350;20.898;2023-11-22T08:48:57;851.75;;;780.85;;
36653;SDS011;22650;49.350;20.898;2023-11-22T08:51:33;844.13;;;776.15;;
36653;SDS011;22650;49.350;20.898;2023-11-22T08:54:07;846.58;;;779.53;;
36653;SDS011;22650;49.350;20.898;2023-11-22T08:56:40;849.47;;;780.30;;
36653;SDS011;22650;49.350;20.898;2023-11-22T08:59:14;852.72;;;782.63;;
36653;SDS011;22650;49.350;20.898;2023-11-22T09:01:48;893.03;;;821.17;;
36653;SDS011;22650;49.350;20.898;2023-11-22T09:04:22;855.05;;;785.70;;
36653;SDS011;22650;49.350;20.898;2023-11-22T09:06:59;843.17;;;774.42;;
36653;SDS011;22650;49.350;20.898;2023-11-22T09:09:33;888.60;;;815.83;;
36653;SDS011;22650;49.350;20.898;2023-11-22T09:12:08;890.85;;;820.05;;
36653;SDS011;22650;49.350;20.898;2023-11-22T09:14:44;879.30;;;809.47;;
36653;SDS011;22650;49.350;20.898;2023-11-22T09:17:18;801.08;;;737.63;;
36653;SDS011;22650;49.350;20.898;2023-11-22T09:19:53;847.15;;;778.47;;
36653;SDS011;22650;49.350;20.898;2023-11-22T09:22:29;831.00;;;763.20;;
36653;SDS011;22650;49.350;20.898;2023-11-22T09:25:03;855.75;;;783.40;;
36653;SDS011;22650;49.350;20.898;2023-11-22T09:27:40;776.13;;;712.63;;
36653;SDS011;22650;49.350;20.898;2023-11-22T09:30:14;856.78;;;786.17;;
36653;SDS011;22650;49.350;20.898;2023-11-22T09:33:04;835.92;;;765.78;;
36653;SDS011;22650;49.350;20.898;2023-11-22T09:35:40;848.45;;;779.30;;
36653;SDS011;22650;49.350;20.898;2023-11-22T09:38:17;875.17;;;798.00;;
36653;SDS011;22650;49.350;20.898;2023-11-22T09:40:51;856.28;;;786.78;;
36653;SDS011;22650;49.350;20.898;2023-11-22T09:43:25;873.08;;;800.42;;
36653;SDS011;22650;49.350;20.898;2023-11-22T09:46:00;852.42;;;782.92;;
36653;SDS011;22650;49.350;20.898;2023-11-22T09:48:36;901.60;;;828.50;;
36653;SDS011;22650;49.350;20.898;2023-11-22T09:51:14;850.47;;;785.38;;
36653;SDS011;22650;49.350;20.898;2023-11-22T09:56:32;759.03;;;700.95;;
36653;SDS011;22650;49.350;20.898;2023-11-22T09:59:08;826.80;;;760.10;;
36653;SDS011;22650;49.350;20.898;2023-11-22T10:01:46;835.75;;;765.22;;
36653;SDS011;22650;49.350;20.898;2023-11-22T10:04:20;814.15;;;746.72;;
36653;SDS011;22650;49.350;20.898;2023-11-22T10:06:57;837.67;;;769.58;;
36653;SDS011;22650;49.350;20.898;2023-11-22T10:09:32;862.85;;;789.42;;
36653;SDS011;22650;49.350;20.898;2023-11-22T10:12:09;835.22;;;766.10;;
36653;SDS011;22650;49.350;20.898;2023-11-22T10:14:46;795.15;;;728.67;;
36653;SDS011;22650;49.350;20.898;2023-11-22T10:17:20;894.40;;;823.88;;
36653;SDS011;22650;49.350;20.898;2023-11-22T10:19:54;854.45;;;786.47;;
36653;SDS011;22650;49.350;20.898;2023-11-22T10:22:28;839.80;;;773.08;;
36653;SDS011;22650;49.350;20.898;2023-11-22T10:25:03;876.47;;;805.42;;
36653;SDS011;22650;49.350;20.898;2023-11-22T10:27:40;831.17;;;762.70;;
36653;SDS011;22650;49.350;20.898;2023-11-22T10:30:13;830.65;;;762.72;;
36653;SDS011;22650;49.350;20.898;2023-11-22T10:32:47;845.25;;;777.60;;
36653;SDS011;22650;49.350;20.898;2023-11-22T10:35:21;824.25;;;756.75;;
36653;SDS011;22650;49.350;20.898;2023-11-22T10:37:55;882.50;;;812.85;;
36653;SDS011;22650;49.350;20.898;2023-11-22T10:40:31;851.45;;;782.67;;
36653;SDS011;22650;49.350;20.898;2023-11-22T10:43:05;936.35;;;859.42;;
36653;SDS011;22650;49.350;20.898;2023-11-22T10:45:42;820.47;;;752.47;;
36653;SDS011;22650;49.350;20.898;2023-11-22T10:48:18;883.53;;;814.13;;
36653;SDS011;22650;49.350;20.898;2023-11-22T10:50:53;855.95;;;788.15;;
36653;SDS011;22650;49.350;20.898;2023-11-22T10:53:31;834.85;;;768.05;;
36653;SDS011;22650;49.350;20.898;2023-11-22T10:56:11;874.00;;;804.47;;
36653;SDS011;22650;49.350;20.898;2023-11-22T10:58:47;885.80;;;814.55;;
36653;SDS011;22650;49.350;20.898;2023-11-22T11:01:23;817.15;;;750.13;;
36653;SDS011;22650;49.350;20.898;2023-11-22T11:04:01;890.13;;;817.83;;
36653;SDS011;22650;49.350;20.898;2023-11-22T11:06:42;846.55;;;780.72;;
36653;SDS011;22650;49.350;20.898;2023-11-22T11:09:19;866.03;;;797.78;;
36653;SDS011;22650;49.350;20.898;2023-11-22T11:12:00;885.53;;;813.08;;
36653;SDS011;22650;49.350;20.898;2023-11-22T11:14:39;923.40;;;848.50;;
36653;SDS011;22650;49.350;20.898;2023-11-22T11:17:13;903.97;;;832.78;;
36653;SDS011;22650;49.350;20.898;2023-11-22T11:19:47;906.58;;;834.78;;
36653;SDS011;22650;49.350;20.898;2023-11-22T11:22:21;968.88;;;888.85;;
36653;SDS011;22650;49.350;20.898;2023-11-22T11:25:00;924.15;;;850.50;;
36653;SDS011;22650;49.350;20.898;2023-11-22T11:27:38;898.78;;;826.85;;
36653;SDS011;22650;49.350;20.898;2023-11-22T11:33:17;821.05;;;759.10;;
36653;SDS011;22650;49.350;20.898;2023-11-22T11:35:52;872.47;;;804.88;;
36653;SDS011;22650;49.350;20.898;2023-11-22T11:38:30;862.50;;;797.15;;
36653;SDS011;22650;49.350;20.898;2023-11-22T11:41:08;833.13;;;767.53;;
36653;SDS011;22650;49.350;20.898;2023-11-22T11:43:46;892.25;;;823.25;;
36653;SDS011;22650;49.350;20.898;2023-11-22T11:46:20;803.70;;;740.38;;
36653;SDS011;22650;49.350;20.898;2023-11-22T11:48:55;836.78;;;771.58;;
36653;SDS011;22650;49.350;20.898;2023-11-22T11:51:29;861.33;;;794.22;;
36653;SDS011;22650;49.350;20.898;2023-11-22T11:54:06;855.50;;;788.65;;
36653;SDS011;22650;49.350;20.898;2023-11-22T11:56:41;833.60;;;770.75;;
36653;SDS011;22650;49.350;20.898;2023-11-22T11:59:17;802.42;;;736.03;;
36653;SDS011;22650;49.350;20.898;2023-11-22T12:01:52;807.97;;;740.83;;
36653;SDS011;22650;49.350;20.898;2023-11-22T12:04:27;836.28;;;771.97;;
36653;SDS011;22650;49.350;20.898;2023-11-22T12:07:01;794.55;;;731.40;;
36653;SDS011;22650;49.350;20.898;2023-11-22T12:09:34;867.90;;;799.72;;
36653;SDS011;22650;49.350;20.898;2023-11-22T12:12:08;814.17;;;749.83;;
36653;SDS011;22650;49.350;20.898;2023-11-22T12:14:43;838.42;;;769.60;;
36653;SDS011;22650;49.350;20.898;2023-11-22T12:17:17;816.75;;;749.50;;
36653;SDS011;22650;49.350;20.898;2023-11-22T12:19:52;813.33;;;749.80;;
36653;SDS011;22650;49.350;20.898;2023-11-22T12:22:26;800.08;;;735.60;;
36653;SDS011;22650;49.350;20.898;2023-11-22T12:25:02;848.35;;;779.72;;
36653;SDS011;22650;49.350;20.898;2023-11-22T12:27:38;836.70;;;766.17;;
36653;SDS011;22650;49.350;20.898;2023-11-22T12:33:13;810.22;;;744.17;;
36653;SDS011;22650;49.350;20.898;2023-11-22T12:35:49;792.67;;;730.28;;
36653;SDS011;22650;49.350;20.898;2023-11-22T12:38:24;832.15;;;763.28;;
36653;SDS011;22650;49.350;20.898;2023-11-22T12:41:01;799.08;;;733.10;;
36653;SDS011;22650;49.350;20.898;2023-11-22T12:43:37;840.65;;;770.75;;
36653;SDS011;22650;49.350;20.898;2023-11-22T12:46:21;806.75;;;738.58;;
36653;SDS011;22650;49.350;20.898;2023-11-22T12:49:05;864.80;;;791.38;;
36653;SDS011;22650;49.350;20.898;2023-11-22T12:51:44;810.53;;;744.15;;
36653;SDS011;22650;49.350;20.898;2023-11-22T12:54:19;898.97;;;819.53;;
36653;SDS011;22650;49.350;20.898;2023-11-22T12:56:54;851.22;;;783.28;;
36653;SDS011;22650;49.350;20.898;2023-11-22T12:59:31;824.42;;;755.08;;
36653;SDS011;22650;49.350;20.898;2023-11-22T13:02:05;809.28;;;744.13;;
36653;SDS011;22650;49.350;20.898;2023-11-22T13:04:41;866.45;;;797.33;;
36653;SDS011;22650;49.350;20.898;2023-11-22T13:07:15;805.15;;;739.45;;
36653;SDS011;22650;49.350;20.898;2023-11-22T13:09:51;876.38;;;809.17;;
36653;SDS011;22650;49.350;20.898;2023-11-22T13:12:25;867.83;;;802.40;;
36653;SDS011;22650;49.350;20.898;2023-11-22T13:14:58;910.42;;;836.33;;
36653;SDS011;22650;49.350;20.898;2023-11-22T13:17:32;876.58;;;808.65;;
36653;SDS011;22650;49.350;20.898;2023-11-22T13:20:08;852.00;;;787.20;;
36653;SDS011;22650;49.350;20.898;2023-11-22T13:22:45;863.78;;;797.45;;
36653;SDS011;22650;49.350;20.898;2023-11-22T13:25:19;934.22;;;850.83;;
36653;SDS011;22650;49.350;20.898;2023-11-22T13:27:54;906.85;;;835.05;;
36653;SDS011;22650;49.350;20.898;2023-11-22T13:30:29;905.72;;;833.70;;
36653;SDS011;22650;49.350;20.898;2023-11-22T13:33:02;873.17;;;804.35;;
36653;SDS011;22650;49.350;20.898;2023-11-22T13:35:38;896.08;;;824.55;;
36653;SDS011;22650;49.350;20.898;2023-11-22T13:38:12;873.95;;;805.45;;
36653;SDS011;22650;49.350;20.898;2023-11-22T13:40:48;787.35;;;729.22;;
36653;SDS011;22650;49.350;20.898;2023-11-22T13:43:24;819.30;;;757.35;;
36653;SDS011;22650;49.350;20.898;2023-11-22T13:45:57;795.13;;;734.95;;
36653;SDS011;22650;49.350;20.898;2023-11-22T13:48:31;808.75;;;747.67;;
36653;SDS011;22650;49.350;20.898;2023-11-22T13:51:06;797.05;;;736.33;;
36653;SDS011;22650;49.350;20.898;2023-11-22T13:53:42;796.53;;;736.50;;
36653;SDS011;22650;49.350;20.898;2023-11-22T13:56:21;803.03;;;739.85;;
36653;SDS011;22650;49.350;20.898;2023-11-22T13:58:54;804.28;;;737.85;;
36653;SDS011;22650;49.350;20.898;2023-11-22T14:01:29;819.63;;;750.95;;
36653;SDS011;22650;49.350;20.898;2023-11-22T14:04:05;831.28;;;760.47;;
36653;SDS011;22650;49.350;20.898;2023-11-22T14:06:40;827.22;;;757.88;;
36653;SDS011;22650;49.350;20.898;2023-11-22T14:09:14;839.58;;;769.72;;
36653;SDS011;22650;49.350;20.898;2023-11-22T14:11:47;867.45;;;795.28;;
36653;SDS011;22650;49.350;20.898;2023-11-22T14:14:21;840.17;;;768.22;;
36653;SDS011;22650;49.350;20.898;2023-11-22T14:16:55;838.40;;;765.72;;
36653;SDS011;22650;49.350;20.898;2023-11-22T14:19:28;841.35;;;770.65;;
36653;SDS011;22650;49.350;20.898;2023-11-22T14:22:04;805.40;;;737.78;;
36653;SDS011;22650;49.350;20.898;2023-11-22T14:24:38;821.70;;;751.75;;
36653;SDS011;22650;49.350;20.898;2023-11-22T14:27:11;863.88;;;790.53;;
36653;SDS011;22650;49.350;20.898;2023-11-22T14:29:45;862.65;;;790.53;;
36653;SDS011;22650;49.350;20.898;2023-11-22T14:32:21;873.28;;;800.53;;
36653;SDS011;22650;49.350;20.898;2023-11-22T14:34:55;810.03;;;748.47;;